Time,TemperatureF,DewpointF,PressureIn,WindDirection,WindDirectionDegrees,WindSpeedMPH,WindSpeedGustMPH,Humidity,HourlyPrecipIn,Conditions,Clouds,dailyrainin,SoftwareType,DateUTC
2013-09-23 00:02:00,44.9,43.8,29.85,West,271,0.0,0.0,96,0.00,,,0.00,WeatherCatV1.11B39,2013-09-23 06:02:00,
2013-09-23 00:07:00,44.9,43.8,29.85,West,271,0.0,0.0,96,0.00,,,0.00,WeatherCatV1.11B39,2013-09-23 06:07:00,
2013-09-23 00:12:00,44.9,43.8,29.85,West,271,0.0,0.0,96,0.00,,,0.00,WeatherCatV1.11B39,2013-09-23 06:12:00,
2013-09-23 00:17:00,44.8,43.7,29.85,West,271,0.0,0.0,96,0.00,,,0.00,WeatherCatV1.11B39,2013-09-23 06:17:00,
2013-09-23 00:22:00,44.9,43.8,29.85,West,271,0.0,0.0,96,0.00,,,0.00,WeatherCatV1.11B39,2013-09-23 06:22:00,
2013-09-23 00:27:00,44.9,43.8,29.85,West,271,0.0,0.0,96,0.00,,,0.00,WeatherCatV1.11B39,2013-09-23 06:27:00,
2013-09-23 00:32:00,44.9,43.8,29.85,West,271,0.0,0.0,96,0.00,,,0.00,WeatherCatV1.11B39,2013-09-23 06:32:00,
2013-09-23 00:37:00,45.0,43.9,29.85,West,271,0.0,0.0,96,0.00,,,0.00,WeatherCatV1.11B39,2013-09-23 06:37:00,
2013-09-23 00:42:00,45.1,44.0,29.85,West,271,0.0,0.0,96,0.00,,,0.00,WeatherCatV1.11B39,2013-09-23 06:42:00,
2013-09-23 00:47:00,45.0,43.9,29.85,West,271,0.0,0.0,96,0.00,,,0.00,WeatherCatV1.11B39,2013-09-23 06:47:00,
2013-09-23 00:52:00,45.0,43.9,29.85,West,271,0.0,0.0,96,0.00,,,0.00,WeatherCatV1.11B39,2013-09-23 06:52:00,
2013-09-23 00:57:00,45.0,43.9,29.85,West,271,1.0,1.0,96,0.00,,,0.00,WeatherCatV1.11B39,2013-09-23 06:57:00,
2013-09-23 01:02:00,45.1,44.0,29.85,West,271,0.0,0.0,96,0.00,,,0.00,WeatherCatV1.11B39,2013-09-23 07:02:00,
2013-09-23 01:07:00,45.1,44.0,29.85,West,271,0.0,0.0,96,0.00,,,0.00,WeatherCatV1.11B39,2013-09-23 07:07:00,
2013-09-23 01:12:00,45.1,44.0,29.85,West,271,0.0,0.0,96,0.00,,,0.00,WeatherCatV1.11B39,2013-09-23 07:12:00,
2013-09-23 01:17:00,45.0,43.9,29.85,West,271,0.0,0.0,96,0.00,,,0.00,WeatherCatV1.11B39,2013-09-23 07:17:00,
2013-09-23 01:22:00,45.1,44.0,29.85,West,271,0.0,0.0,96,0.00,,,0.00,WeatherCatV1.11B39,2013-09-23 07:22:00,
2013-09-23 01:27:00,45.1,44.0,29.85,West,271,0.0,0.0,96,0.00,,,0.00,WeatherCatV1.11B39,2013-09-23 07:27:00,
2013-09-23 01:32:00,45.1,44.0,29.85,West,271,0.0,0.0,96,0.00,,,0.00,WeatherCatV1.11B39,2013-09-23 07:32:00,
2013-09-23 01:37:00,45.0,43.9,29.85,West,271,0.0,0.0,96,0.00,,,0.00,WeatherCatV1.11B39,2013-09-23 07:37:00,
2013-09-23 01:42:00,45.0,43.9,29.85,West,271,0.0,0.0,96,0.00,,,0.00,WeatherCatV1.11B39,2013-09-23 07:42:00,
2013-09-23 01:47:00,44.9,43.8,29.85,West,271,0.0,0.0,96,0.00,,,0.00,WeatherCatV1.11B39,2013-09-23 07:47:00,
2013-09-23 01:52:00,44.9,43.8,29.85,West,271,0.0,0.0,96,0.00,,,0.00,WeatherCatV1.11B39,2013-09-23 07:52:00,
2013-09-23 01:57:00,44.9,43.8,29.85,West,271,0.0,0.0,96,0.00,,,0.00,WeatherCatV1.11B39,2013-09-23 07:57:00,
2013-09-23 02:02:00,44.9,43.8,29.85,West,271,0.0,0.0,96,0.00,,,0.00,WeatherCatV1.11B39,2013-09-23 08:02:00,
2013-09-23 02:07:00,44.8,43.7,29.85,West,271,0.0,0.0,96,0.00,,,0.00,WeatherCatV1.11B39,2013-09-23 08:07:00,
2013-09-23 02:12:00,44.7,43.6,29.85,West,271,0.0,0.0,96,0.00,,,0.00,WeatherCatV1.11B39,2013-09-23 08:12:00,
2013-09-23 02:17:00,44.7,43.6,29.85,West,271,0.0,0.0,96,0.00,,,0.00,WeatherCatV1.11B39,2013-09-23 08:17:00,
2013-09-23 02:22:00,44.6,43.5,29.85,West,271,0.0,0.0,96,0.00,,,0.00,WeatherCatV1.11B39,2013-09-23 08:22:00,
2013-09-23 02:27:00,44.6,43.5,29.85,West,271,0.0,0.0,96,0.00,,,0.00,WeatherCatV1.11B39,2013-09-23 08:27:00,
2013-09-23 02:32:00,44.5,43.4,29.85,West,271,0.0,0.0,96,0.00,,,0.00,WeatherCatV1.11B39,2013-09-23 08:32:00,
2013-09-23 02:37:00,44.5,43.4,29.85,West,271,0.0,0.0,96,0.00,,,0.00,WeatherCatV1.11B39,2013-09-23 08:37:00,
2013-09-23 02:42:00,44.5,43.4,29.85,West,271,0.0,0.0,96,0.00,,,0.00,WeatherCatV1.11B39,2013-09-23 08:42:00,
2013-09-23 02:47:00,44.5,43.4,29.85,West,271,0.0,0.0,96,0.00,,,0.00,WeatherCatV1.11B39,2013-09-23 08:47:00,
2013-09-23 02:52:00,44.5,43.4,29.86,West,271,0.0,0.0,96,0.00,,,0.00,WeatherCatV1.11B39,2013-09-23 08:52:00,
2013-09-23 02:57:00,44.4,43.3,29.86,West,271,0.0,0.0,96,0.00,,,0.00,WeatherCatV1.11B39,2013-09-23 08:57:00,
2013-09-23 03:02:00,44.4,43.3,29.86,West,271,0.0,0.0,96,0.00,,,0.00,WeatherCatV1.11B39,2013-09-23 09:02:00,
2013-09-23 03:07:00,44.5,43.4,29.86,West,271,0.0,0.0,96,0.00,,,0.00,WeatherCatV1.11B39,2013-09-23 09:07:00,
2013-09-23 03:12:00,44.5,43.4,29.87,West,271,0.0,0.0,96,0.00,,,0.00,WeatherCatV1.11B39,2013-09-23 09:12:00,
2013-09-23 03:17:00,44.5,43.4,29.87,West,271,0.0,0.0,96,0.00,,,0.00,WeatherCatV1.11B39,2013-09-23 09:17:00,
2013-09-23 03:22:00,44.4,43.3,29.87,West,271,0.0,0.0,96,0.00,,,0.00,WeatherCatV1.11B39,2013-09-23 09:22:00,
2013-09-23 03:27:00,44.5,43.4,29.88,West,271,0.0,0.0,96,0.00,,,0.00,WeatherCatV1.11B39,2013-09-23 09:27:00,
2013-09-23 03:32:00,44.4,43.3,29.88,West,271,0.0,0.0,96,0.00,,,0.00,WeatherCatV1.11B39,2013-09-23 09:32:00,
2013-09-23 03:37:00,44.3,43.2,29.88,West,271,0.0,0.0,96,0.00,,,0.00,WeatherCatV1.11B39,2013-09-23 09:37:00,
2013-09-23 03:42:00,44.4,43.3,29.89,West,271,0.0,0.0,96,0.00,,,0.00,WeatherCatV1.11B39,2013-09-23 09:42:00,
2013-09-23 03:47:00,44.4,43.3,29.89,West,271,0.0,0.0,96,0.00,,,0.00,WeatherCatV1.11B39,2013-09-23 09:47:00,
2013-09-23 03:52:00,44.4,43.3,29.89,West,271,0.0,0.0,96,0.00,,,0.00,WeatherCatV1.11B39,2013-09-23 09:52:00,
2013-09-23 03:57:00,44.4,43.3,29.89,West,271,0.0,1.0,96,0.00,,,0.00,WeatherCatV1.11B39,2013-09-23 09:57:00,
2013-09-23 04:02:00,44.3,43.2,29.90,West,271,0.0,1.0,96,0.00,,,0.00,WeatherCatV1.11B39,2013-09-23 10:02:00,
2013-09-23 04:07:00,44.3,43.2,29.90,West,271,0.0,0.0,96,0.00,,,0.00,WeatherCatV1.11B39,2013-09-23 10:07:00,
2013-09-23 04:12:00,44.1,43.0,29.90,West,271,0.0,2.0,96,0.00,,,0.00,WeatherCatV1.11B39,2013-09-23 10:12:00,
2013-09-23 04:17:00,44.0,42.7,29.91,West,271,0.0,0.0,95,0.00,,,0.00,WeatherCatV1.11B39,2013-09-23 10:17:00,
2013-09-23 04:22:00,44.0,42.9,29.91,West,271,0.0,0.0,96,0.00,,,0.00,WeatherCatV1.11B39,2013-09-23 10:22:00,
2013-09-23 04:27:00,44.0,42.9,29.91,West,271,0.0,0.0,96,0.00,,,0.00,WeatherCatV1.11B39,2013-09-23 10:27:00,
2013-09-23 04:32:00,44.0,42.9,29.92,West,271,0.0,1.0,96,0.00,,,0.00,WeatherCatV1.11B39,2013-09-23 10:32:00,
2013-09-23 04:37:00,44.0,42.9,29.92,West,271,1.0,1.0,96,0.00,,,0.00,WeatherCatV1.11B39,2013-09-23 10:37:00,
2013-09-23 04:42:00,44.0,42.9,29.92,West,271,1.0,5.0,96,0.00,,,0.00,WeatherCatV1.11B39,2013-09-23 10:42:00,
2013-09-23 04:47:00,44.0,42.7,29.93,West,271,1.0,2.0,95,0.00,,,0.00,WeatherCatV1.11B39,2013-09-23 10:47:00,
2013-09-23 04:52:00,44.0,42.7,29.93,West,271,2.0,3.0,95,0.00,,,0.00,WeatherCatV1.11B39,2013-09-23 10:52:00,
2013-09-23 04:57:00,44.0,42.7,29.93,West,271,2.0,4.0,95,0.00,,,0.00,WeatherCatV1.11B39,2013-09-23 10:57:00,
2013-09-23 05:02:00,44.0,42.7,29.93,West,271,0.0,0.0,95,0.00,,,0.00,WeatherCatV1.11B39,2013-09-23 11:02:00,
2013-09-23 05:07:00,44.2,42.6,29.94,SSW,207,0.0,1.0,94,0.00,,,0.00,WeatherCatV1.11B39,2013-09-23 11:07:00,
2013-09-23 05:12:00,44.4,42.5,29.94,West,259,2.0,3.0,93,0.00,,,0.00,WeatherCatV1.11B39,2013-09-23 11:12:00,
2013-09-23 05:17:00,44.5,42.6,29.94,West,264,3.0,4.0,93,0.00,,,0.00,WeatherCatV1.11B39,2013-09-23 11:17:00,
2013-09-23 05:22:00,44.5,42.6,29.94,NW,307,3.0,6.0,93,0.00,,,0.00,WeatherCatV1.11B39,2013-09-23 11:22:00,
2013-09-23 05:27:00,44.6,42.7,29.95,SW,232,6.0,6.0,93,0.00,,,0.00,WeatherCatV1.11B39,2013-09-23 11:27:00,
2013-09-23 05:32:00,44.6,42.4,29.95,WNW,301,2.0,4.0,92,0.00,,,0.00,WeatherCatV1.11B39,2013-09-23 11:32:00,
2013-09-23 05:37:00,44.7,42.8,29.95,WNW,287,0.0,0.0,93,0.00,,,0.00,WeatherCatV1.11B39,2013-09-23 11:37:00,
2013-09-23 05:42:00,44.7,42.8,29.96,WNW,302,1.0,2.0,93,0.00,,,0.00,WeatherCatV1.11B39,2013-09-23 11:42:00,
2013-09-23 05:47:00,44.7,42.8,29.96,West,277,3.0,7.0,93,0.00,,,0.00,WeatherCatV1.11B39,2013-09-23 11:47:00,
2013-09-23 05:52:00,44.7,42.5,29.96,West,271,0.0,0.0,92,0.00,,,0.01,WeatherCatV1.11B39,2013-09-23 11:52:00,
2013-09-23 05:57:00,44.7,42.8,29.96,WNW,292,3.0,5.0,93,0.00,,,0.01,WeatherCatV1.11B39,2013-09-23 11:57:00,
2013-09-23 06:02:00,44.8,42.9,29.96,WNW,298,0.0,3.0,93,0.00,,,0.01,WeatherCatV1.11B39,2013-09-23 12:02:00,
2013-09-23 06:07:00,44.8,42.9,29.97,WNW,298,0.0,0.0,93,0.00,,,0.01,WeatherCatV1.11B39,2013-09-23 12:07:00,
2013-09-23 06:12:00,44.8,42.9,29.97,WNW,298,0.0,1.0,93,0.00,,,0.01,WeatherCatV1.11B39,2013-09-23 12:12:00,
2013-09-23 06:17:00,44.7,42.8,29.97,WNW,298,0.0,1.0,93,0.00,,,0.01,WeatherCatV1.11B39,2013-09-23 12:17:00,
2013-09-23 06:22:00,44.7,42.8,29.97,WNW,298,0.0,1.0,93,0.00,,,0.01,WeatherCatV1.11B39,2013-09-23 12:22:00,
2013-09-23 06:27:00,44.7,42.8,29.97,WNW,298,0.0,2.0,93,0.00,,,0.01,WeatherCatV1.11B39,2013-09-23 12:27:00,
2013-09-23 06:32:00,44.7,43.1,29.97,WNW,298,0.0,0.0,94,0.00,,,0.01,WeatherCatV1.11B39,2013-09-23 12:32:00,
2013-09-23 06:37:00,44.7,43.1,29.98,WNW,298,0.0,0.0,94,0.00,,,0.01,WeatherCatV1.11B39,2013-09-23 12:37:00,
2013-09-23 06:42:00,44.7,43.1,29.98,WNW,298,0.0,0.0,94,0.00,,,0.01,WeatherCatV1.11B39,2013-09-23 12:42:00,
2013-09-23 06:47:00,44.7,43.1,29.99,WNW,298,0.0,0.0,94,0.00,,,0.01,WeatherCatV1.11B39,2013-09-23 12:47:00,
2013-09-23 06:52:00,44.7,43.1,29.99,WNW,298,0.0,1.0,94,0.00,,,0.01,WeatherCatV1.11B39,2013-09-23 12:52:00,
2013-09-23 06:57:00,44.6,43.0,29.99,WNW,298,0.0,0.0,94,0.00,,,0.01,WeatherCatV1.11B39,2013-09-23 12:57:00,
2013-09-23 07:02:00,44.5,42.9,29.99,WNW,298,0.0,0.0,94,0.00,,,0.01,WeatherCatV1.11B39,2013-09-23 13:02:00,
2013-09-23 07:07:00,44.5,42.9,29.99,WNW,298,0.0,0.0,94,0.00,,,0.01,WeatherCatV1.11B39,2013-09-23 13:07:00,
2013-09-23 07:12:00,44.3,42.7,30.00,WNW,298,0.0,0.0,94,0.00,,,0.01,WeatherCatV1.11B39,2013-09-23 13:12:00,
2013-09-23 07:17:00,44.2,42.6,30.00,WNW,298,0.0,0.0,94,0.00,,,0.01,WeatherCatV1.11B39,2013-09-23 13:17:00,
2013-09-23 07:22:00,44.0,42.4,30.00,WNW,298,0.0,0.0,94,0.00,,,0.01,WeatherCatV1.11B39,2013-09-23 13:22:00,
2013-09-23 07:27:00,44.0,42.4,30.00,WNW,298,0.0,0.0,94,0.00,,,0.01,WeatherCatV1.11B39,2013-09-23 13:27:00,
2013-09-23 07:32:00,43.9,42.6,30.00,WNW,298,0.0,0.0,95,0.00,,,0.01,WeatherCatV1.11B39,2013-09-23 13:32:00,
2013-09-23 07:37:00,43.8,42.5,30.01,WNW,298,0.0,0.0,95,0.00,,,0.01,WeatherCatV1.11B39,2013-09-23 13:37:00,
2013-09-23 07:42:00,43.8,42.5,30.01,WNW,298,0.0,0.0,95,0.00,,,0.01,WeatherCatV1.11B39,2013-09-23 13:42:00,
2013-09-23 07:47:00,43.7,42.4,30.01,WNW,298,0.0,0.0,95,0.00,,,0.01,WeatherCatV1.11B39,2013-09-23 13:47:00,
2013-09-23 07:52:00,43.6,42.3,30.02,WNW,298,0.0,0.0,95,0.00,,,0.01,WeatherCatV1.11B39,2013-09-23 13:52:00,
2013-09-23 07:57:00,43.7,42.4,30.02,WNW,298,1.0,1.0,95,0.00,,,0.01,WeatherCatV1.11B39,2013-09-23 13:57:00,
2013-09-23 08:02:00,43.8,42.5,30.02,WNW,298,0.0,0.0,95,0.00,,,0.01,WeatherCatV1.11B39,2013-09-23 14:02:00,
2013-09-23 08:07:00,43.9,42.8,30.02,WNW,298,1.0,1.0,96,0.00,,,0.01,WeatherCatV1.11B39,2013-09-23 14:07:00,
2013-09-23 08:12:00,44.0,42.9,30.03,WNW,298,0.0,0.0,96,0.00,,,0.01,WeatherCatV1.11B39,2013-09-23 14:12:00,
2013-09-23 08:17:00,44.0,42.9,30.03,WNW,298,0.0,0.0,96,0.00,,,0.01,WeatherCatV1.11B39,2013-09-23 14:17:00,
2013-09-23 08:22:00,44.1,43.0,30.03,WNW,298,0.0,0.0,96,0.00,,,0.01,WeatherCatV1.11B39,2013-09-23 14:22:00,
2013-09-23 08:27:00,44.1,43.0,30.03,WNW,298,2.0,2.0,96,0.00,,,0.01,WeatherCatV1.11B39,2013-09-23 14:27:00,
2013-09-23 08:32:00,44.2,43.1,30.04,WNW,298,0.0,0.0,96,0.00,,,0.01,WeatherCatV1.11B39,2013-09-23 14:32:00,
2013-09-23 08:37:00,44.4,43.3,30.04,WNW,298,1.0,2.0,96,0.00,,,0.01,WeatherCatV1.11B39,2013-09-23 14:37:00,
2013-09-23 08:42:00,44.9,43.8,30.04,WNW,298,0.0,0.0,96,0.00,,,0.01,WeatherCatV1.11B39,2013-09-23 14:42:00,
2013-09-23 08:47:00,45.2,44.1,30.04,WNW,298,0.0,0.0,96,0.00,,,0.01,WeatherCatV1.11B39,2013-09-23 14:47:00,
2013-09-23 08:52:00,45.7,44.6,30.05,WNW,298,0.0,0.0,96,0.00,,,0.01,WeatherCatV1.11B39,2013-09-23 14:52:00,
2013-09-23 08:57:00,46.2,45.1,30.05,WNW,298,0.0,1.0,96,0.00,,,0.01,WeatherCatV1.11B39,2013-09-23 14:57:00,
2013-09-23 09:02:00,46.6,45.2,30.05,WNW,298,0.0,0.0,95,0.00,,,0.01,WeatherCatV1.11B39,2013-09-23 15:02:00,
2013-09-23 09:07:00,46.8,42.8,30.06,SW,232,2.0,3.0,86,0.00,,,0.01,WeatherCatV1.11B39,2013-09-23 15:07:00,
2013-09-23 09:12:00,47.5,41.0,30.06,WSW,254,11.0,16.0,78,0.00,,,0.01,WeatherCatV1.11B39,2013-09-23 15:12:00,
2013-09-23 09:17:00,48.5,39.5,30.06,WNW,299,7.0,13.0,71,0.00,,,0.01,WeatherCatV1.11B39,2013-09-23 15:17:00,
2013-09-23 09:22:00,49.3,39.2,30.07,SW,227,13.0,20.0,68,0.00,,,0.01,WeatherCatV1.11B39,2013-09-23 15:22:00,
2013-09-23 09:27:00,49.9,38.2,30.08,WSW,258,6.0,10.0,64,0.00,,,0.01,WeatherCatV1.11B39,2013-09-23 15:27:00,
2013-09-23 09:32:00,50.5,38.4,30.08,WNW,286,9.0,12.0,63,0.00,,,0.01,WeatherCatV1.11B39,2013-09-23 15:32:00,
2013-09-23 09:37:00,51.0,37.2,30.08,WNW,292,8.0,16.0,59,0.00,,,0.01,WeatherCatV1.11B39,2013-09-23 15:37:00,
2013-09-23 09:42:00,51.3,38.3,30.08,West,279,2.0,12.0,61,0.00,,,0.01,WeatherCatV1.11B39,2013-09-23 15:42:00,
2013-09-23 09:47:00,51.7,37.8,30.08,WNW,298,0.0,8.0,59,0.00,,,0.01,WeatherCatV1.11B39,2013-09-23 15:47:00,
2013-09-23 09:52:00,52.2,36.5,30.09,West,271,0.0,16.0,55,0.00,,,0.01,WeatherCatV1.11B39,2013-09-23 15:52:00,
2013-09-23 09:57:00,52.7,36.1,30.09,WNW,299,10.0,15.0,53,0.00,,,0.01,WeatherCatV1.11B39,2013-09-23 15:57:00,
2013-09-23 10:02:00,53.2,37.5,30.10,West,261,1.0,11.0,55,0.00,,,0.01,WeatherCatV1.11B39,2013-09-23 16:02:00,
2013-09-23 10:07:00,53.6,36.9,30.10,West,271,4.0,10.0,53,0.00,,,0.01,WeatherCatV1.11B39,2013-09-23 16:07:00,
2013-09-23 10:12:00,54.0,37.7,30.10,WNW,284,7.0,8.0,54,0.00,,,0.01,WeatherCatV1.11B39,2013-09-23 16:12:00,
2013-09-23 10:17:00,54.3,37.5,30.10,SW,234,7.0,10.0,53,0.00,,,0.01,WeatherCatV1.11B39,2013-09-23 16:17:00,
2013-09-23 10:22:00,54.5,35.7,30.10,WNW,288,2.0,10.0,49,0.00,,,0.01,WeatherCatV1.11B39,2013-09-23 16:22:00,
2013-09-23 10:27:00,55.0,36.2,30.10,West,275,3.0,8.0,49,0.00,,,0.01,WeatherCatV1.11B39,2013-09-23 16:27:00,
2013-09-23 10:32:00,55.4,37.6,30.10,West,263,4.0,4.0,51,0.00,,,0.01,WeatherCatV1.11B39,2013-09-23 16:32:00,
2013-09-23 10:37:00,55.9,35.4,30.10,WSW,252,6.0,8.0,46,0.00,,,0.01,WeatherCatV1.11B39,2013-09-23 16:37:00,
2013-09-23 10:42:00,56.3,35.8,30.10,WNW,283,6.0,10.0,46,0.00,,,0.01,WeatherCatV1.11B39,2013-09-23 16:42:00,
2013-09-23 10:47:00,56.6,37.1,30.10,SW,218,6.0,11.0,48,0.00,,,0.01,WeatherCatV1.11B39,2013-09-23 16:47:00,
2013-09-23 10:52:00,56.5,36.5,30.10,SW,229,8.0,12.0,47,0.00,,,0.01,WeatherCatV1.11B39,2013-09-23 16:52:00,
2013-09-23 10:57:00,56.7,38.8,30.11,WSW,250,9.0,11.0,51,0.00,,,0.01,WeatherCatV1.11B39,2013-09-23 16:57:00,
2013-09-23 11:02:00,57.2,36.6,30.11,WNW,295,3.0,8.0,46,0.00,,,0.01,WeatherCatV1.11B39,2013-09-23 17:02:00,
2013-09-23 11:07:00,57.0,35.3,30.11,WNW,292,6.0,12.0,44,0.00,,,0.01,WeatherCatV1.11B39,2013-09-23 17:07:00,
2013-09-23 11:12:00,56.7,35.6,30.11,SW,220,4.0,11.0,45,0.00,,,0.01,WeatherCatV1.11B39,2013-09-23 17:12:00,
2013-09-23 11:17:00,56.8,37.3,30.11,West,261,1.0,13.0,48,0.00,,,0.01,WeatherCatV1.11B39,2013-09-23 17:17:00,
2013-09-23 11:22:00,57.2,37.2,30.12,WNW,294,3.0,13.0,47,0.00,,,0.01,WeatherCatV1.11B39,2013-09-23 17:22:00,
2013-09-23 11:27:00,57.7,39.2,30.12,West,278,9.0,12.0,50,0.00,,,0.01,WeatherCatV1.11B39,2013-09-23 17:27:00,
2013-09-23 11:32:00,58.0,37.9,30.12,WNW,294,7.0,10.0,47,0.00,,,0.01,WeatherCatV1.11B39,2013-09-23 17:32:00,
2013-09-23 11:37:00,58.2,37.0,30.12,SW,231,3.0,11.0,45,0.00,,,0.01,WeatherCatV1.11B39,2013-09-23 17:37:00,
2013-09-23 11:42:00,58.3,37.6,30.12,West,273,4.0,11.0,46,0.00,,,0.01,WeatherCatV1.11B39,2013-09-23 17:42:00,
2013-09-23 11:47:00,58.1,36.9,30.12,NW,313,6.0,10.0,45,0.00,,,0.01,WeatherCatV1.11B39,2013-09-23 17:47:00,
2013-09-23 11:52:00,57.5,39.0,30.12,West,274,0.0,3.0,50,0.00,,,0.01,WeatherCatV1.11B39,2013-09-23 17:52:00,
2013-09-23 11:57:00,57.0,36.4,30.13,West,280,4.0,9.0,46,0.00,,,0.01,WeatherCatV1.11B39,2013-09-23 17:57:00,
2013-09-23 12:02:00,56.7,37.8,30.13,SSE,148,2.0,3.0,49,0.00,,,0.01,WeatherCatV1.11B39,2013-09-23 18:02:00,
2013-09-23 12:07:00,56.4,38.0,30.13,WNW,294,5.0,5.0,50,0.00,,,0.01,WeatherCatV1.11B39,2013-09-23 18:07:00,
2013-09-23 12:12:00,56.3,36.3,30.13,SW,232,4.0,6.0,47,0.00,,,0.01,WeatherCatV1.11B39,2013-09-23 18:12:00,
2013-09-23 12:17:00,56.0,38.1,30.13,SSE,155,3.0,4.0,51,0.00,,,0.01,WeatherCatV1.11B39,2013-09-23 18:17:00,
2013-09-23 12:22:00,55.6,37.3,30.13,West,262,0.0,2.0,50,0.00,,,0.01,WeatherCatV1.11B39,2013-09-23 18:22:00,
2013-09-23 12:27:00,55.4,36.0,30.12,WSW,248,9.0,11.0,48,0.00,,,0.01,WeatherCatV1.11B39,2013-09-23 18:27:00,
2013-09-23 12:32:00,55.3,35.4,30.12,SW,233,1.0,10.0,47,0.00,,,0.01,WeatherCatV1.11B39,2013-09-23 18:32:00,
2013-09-23 12:37:00,55.9,37.5,30.12,West,271,2.0,3.0,50,0.00,,,0.01,WeatherCatV1.11B39,2013-09-23 18:37:00,
2013-09-23 12:42:00,56.4,35.9,30.12,WNW,292,8.0,8.0,46,0.00,,,0.01,WeatherCatV1.11B39,2013-09-23 18:42:00,
2013-09-23 12:47:00,56.8,36.2,30.12,West,277,5.0,9.0,46,0.00,,,0.01,WeatherCatV1.11B39,2013-09-23 18:47:00,
2013-09-23 12:52:00,57.5,36.9,30.13,SW,223,4.0,6.0,46,0.00,,,0.01,WeatherCatV1.11B39,2013-09-23 18:52:00,
2013-09-23 12:57:00,57.8,34.9,30.13,SSW,209,1.0,8.0,42,0.00,,,0.01,WeatherCatV1.11B39,2013-09-23 18:57:00,
2013-09-23 13:02:00,57.5,36.3,30.13,WNW,295,0.0,6.0,45,0.00,,,0.01,WeatherCatV1.11B39,2013-09-23 19:02:00,
2013-09-23 13:07:00,57.6,37.5,30.12,SW,228,1.0,4.0,47,0.00,,,0.01,WeatherCatV1.11B39,2013-09-23 19:07:00,
2013-09-23 13:12:00,57.9,35.5,30.13,West,280,9.0,9.0,43,0.00,,,0.01,WeatherCatV1.11B39,2013-09-23 19:12:00,
2013-09-23 13:17:00,58.8,37.5,30.13,WSW,258,6.0,8.0,45,0.00,,,0.01,WeatherCatV1.11B39,2013-09-23 19:17:00,
2013-09-23 13:22:00,59.7,37.2,30.12,West,270,2.0,9.0,43,0.00,,,0.01,WeatherCatV1.11B39,2013-09-23 19:22:00,
2013-09-23 13:27:00,60.2,37.0,30.13,WSW,257,9.0,10.0,42,0.00,,,0.01,WeatherCatV1.11B39,2013-09-23 19:27:00,
2013-09-23 13:32:00,60.7,36.9,30.13,WNW,292,6.0,14.0,41,0.00,,,0.01,WeatherCatV1.11B39,2013-09-23 19:32:00,
2013-09-23 13:37:00,61.3,38.0,30.13,West,267,7.0,8.0,42,0.00,,,0.01,WeatherCatV1.11B39,2013-09-23 19:37:00,
2013-09-23 13:42:00,61.3,37.4,30.13,West,270,6.0,10.0,41,0.00,,,0.01,WeatherCatV1.11B39,2013-09-23 19:42:00,
2013-09-23 13:47:00,60.9,35.1,30.13,SSW,213,7.0,7.0,38,0.00,,,0.01,WeatherCatV1.11B39,2013-09-23 19:47:00,
2013-09-23 13:52:00,60.2,37.6,30.13,West,280,5.0,5.0,43,0.00,,,0.01,WeatherCatV1.11B39,2013-09-23 19:52:00,
2013-09-23 13:57:00,59.5,35.2,30.14,WNW,286,4.0,7.0,40,0.00,,,0.01,WeatherCatV1.11B39,2013-09-23 19:57:00,
2013-09-23 14:02:00,59.2,36.1,30.13,WSW,250,1.0,4.0,42,0.00,,,0.01,WeatherCatV1.11B39,2013-09-23 20:02:00,
2013-09-23 14:07:00,59.6,37.1,30.14,NW,312,0.0,9.0,43,0.00,,,0.01,WeatherCatV1.11B39,2013-09-23 20:07:00,
2013-09-23 14:12:00,59.8,34.8,30.13,NW,310,3.0,6.0,39,0.00,,,0.01,WeatherCatV1.11B39,2013-09-23 20:12:00,
2013-09-23 14:17:00,60.0,36.2,30.14,WNW,294,5.0,13.0,41,0.00,,,0.01,WeatherCatV1.11B39,2013-09-23 20:17:00,
2013-09-23 14:22:00,60.2,37.0,30.14,NE,55,3.0,8.0,42,0.00,,,0.01,WeatherCatV1.11B39,2013-09-23 20:22:00,
2013-09-23 14:27:00,60.9,37.0,30.14,SW,222,3.0,3.0,41,0.00,,,0.01,WeatherCatV1.11B39,2013-09-23 20:27:00,
2013-09-23 14:32:00,61.4,36.2,30.14,SSW,198,2.0,6.0,39,0.00,,,0.01,WeatherCatV1.11B39,2013-09-23 20:32:00,
2013-09-23 14:37:00,62.0,39.2,30.14,WNW,285,2.0,7.0,43,0.00,,,0.01,WeatherCatV1.11B39,2013-09-23 20:37:00,
2013-09-23 14:42:00,62.2,38.2,30.14,West,271,6.0,10.0,41,0.00,,,0.01,WeatherCatV1.11B39,2013-09-23 20:42:00,
2013-09-23 14:47:00,62.0,37.4,30.14,West,280,1.0,7.0,40,0.00,,,0.01,WeatherCatV1.11B39,2013-09-23 20:47:00,
2013-09-23 14:52:00,62.3,38.3,30.15,West,260,3.0,10.0,41,0.00,,,0.01,WeatherCatV1.11B39,2013-09-23 20:52:00,
2013-09-23 14:57:00,63.0,37.7,30.15,WNW,284,0.0,11.0,39,0.00,,,0.01,WeatherCatV1.11B39,2013-09-23 20:57:00,
2013-09-23 15:02:00,63.7,39.6,30.14,West,270,6.0,10.0,41,0.00,,,0.01,WeatherCatV1.11B39,2013-09-23 21:02:00,
2013-09-23 15:07:00,63.6,37.5,30.14,SW,224,2.0,5.0,38,0.00,,,0.01,WeatherCatV1.11B39,2013-09-23 21:07:00,
2013-09-23 15:12:00,62.3,38.9,30.14,SSW,211,1.0,4.0,42,0.00,,,0.01,WeatherCatV1.11B39,2013-09-23 21:12:00,
2013-09-23 15:17:00,61.3,38.0,30.14,WSW,240,2.0,2.0,42,0.00,,,0.01,WeatherCatV1.11B39,2013-09-23 21:17:00,
2013-09-23 15:22:00,60.7,38.1,30.15,WNW,288,0.0,5.0,43,0.00,,,0.01,WeatherCatV1.11B39,2013-09-23 21:22:00,
2013-09-23 15:27:00,60.2,37.6,30.14,WNW,289,4.0,4.0,43,0.00,,,0.01,WeatherCatV1.11B39,2013-09-23 21:27:00,
2013-09-23 15:32:00,59.8,37.8,30.15,WSW,246,0.0,0.0,44,0.00,,,0.01,WeatherCatV1.11B39,2013-09-23 21:32:00,
2013-09-23 15:37:00,59.4,37.5,30.15,WSW,246,0.0,2.0,44,0.00,,,0.01,WeatherCatV1.11B39,2013-09-23 21:37:00,
2013-09-23 15:42:00,59.1,38.3,30.15,WSW,246,0.0,0.0,46,0.00,,,0.01,WeatherCatV1.11B39,2013-09-23 21:42:00,
2013-09-23 15:47:00,59.5,38.1,30.15,South,186,1.0,3.0,45,0.00,,,0.01,WeatherCatV1.11B39,2013-09-23 21:47:00,
2013-09-23 15:52:00,60.3,37.1,30.15,WNW,292,4.0,6.0,42,0.00,,,0.01,WeatherCatV1.11B39,2013-09-23 21:52:00,
2013-09-23 15:57:00,61.0,37.1,30.15,WNW,300,6.0,10.0,41,0.00,,,0.01,WeatherCatV1.11B39,2013-09-23 21:57:00,
2013-09-23 16:02:00,61.3,37.4,30.15,WSW,239,3.0,8.0,41,0.00,,,0.01,WeatherCatV1.11B39,2013-09-23 22:02:00,
2013-09-23 16:07:00,61.3,38.6,30.15,WNW,286,6.0,12.0,43,0.00,,,0.01,WeatherCatV1.11B39,2013-09-23 22:07:00,
2013-09-23 16:12:00,61.3,38.0,30.15,SW,221,0.0,4.0,42,0.00,,,0.01,WeatherCatV1.11B39,2013-09-23 22:12:00,
2013-09-23 16:17:00,61.3,38.6,30.15,West,259,2.0,5.0,43,0.00,,,0.01,WeatherCatV1.11B39,2013-09-23 22:17:00,
2013-09-23 16:22:00,61.4,38.1,30.15,WNW,297,0.0,5.0,42,0.00,,,0.01,WeatherCatV1.11B39,2013-09-23 22:22:00,
2013-09-23 16:27:00,61.4,38.1,30.15,SSE,163,1.0,3.0,42,0.00,,,0.01,WeatherCatV1.11B39,2013-09-23 22:27:00,
2013-09-23 16:32:00,60.9,37.7,30.15,West,274,0.0,4.0,42,0.00,,,0.01,WeatherCatV1.11B39,2013-09-23 22:32:00,
2013-09-23 16:37:00,60.7,36.9,30.15,West,262,0.0,11.0,41,0.00,,,0.01,WeatherCatV1.11B39,2013-09-23 22:37:00,
2013-09-23 16:42:00,61.1,38.4,30.15,SSW,200,3.0,9.0,43,0.00,,,0.01,WeatherCatV1.11B39,2013-09-23 22:42:00,
2013-09-23 16:47:00,61.1,36.0,30.15,SSW,192,2.0,7.0,39,0.00,,,0.01,WeatherCatV1.11B39,2013-09-23 22:47:00,
2013-09-23 16:52:00,60.8,35.7,30.15,West,272,5.0,12.0,39,0.00,,,0.01,WeatherCatV1.11B39,2013-09-23 22:52:00,
2013-09-23 16:57:00,60.9,36.4,30.16,SW,225,3.0,8.0,40,0.00,,,0.01,WeatherCatV1.11B39,2013-09-23 22:57:00,
2013-09-23 17:02:00,61.4,36.9,30.16,SW,222,5.0,15.0,40,0.00,,,0.01,WeatherCatV1.11B39,2013-09-23 23:02:00,
2013-09-23 17:07:00,61.6,36.4,30.16,SW,227,1.0,4.0,39,0.00,,,0.01,WeatherCatV1.11B39,2013-09-23 23:07:00,
2013-09-23 17:12:00,61.6,37.0,30.16,SW,221,5.0,7.0,40,0.00,,,0.02,WeatherCatV1.11B39,2013-09-23 23:12:00,
2013-09-23 17:17:00,62.0,36.8,30.16,WNW,283,5.0,9.0,39,0.00,,,0.02,WeatherCatV1.11B39,2013-09-23 23:17:00,
2013-09-23 17:22:00,62.0,38.0,30.16,SW,234,3.0,4.0,41,0.00,,,0.02,WeatherCatV1.11B39,2013-09-23 23:22:00,
2013-09-23 17:27:00,61.5,37.0,30.16,WSW,244,4.0,7.0,40,0.00,,,0.02,WeatherCatV1.11B39,2013-09-23 23:27:00,
2013-09-23 17:32:00,60.9,35.8,30.17,WSW,242,0.0,6.0,39,0.00,,,0.02,WeatherCatV1.11B39,2013-09-23 23:32:00,
2013-09-23 17:37:00,60.4,36.0,30.17,WSW,250,2.0,4.0,40,0.00,,,0.02,WeatherCatV1.11B39,2013-09-23 23:37:00,
2013-09-23 17:42:00,60.6,35.5,30.17,SW,234,0.0,1.0,39,0.00,,,0.02,WeatherCatV1.11B39,2013-09-23 23:42:00,
2013-09-23 17:47:00,61.0,40.1,30.17,SW,234,1.0,2.0,46,0.00,,,0.02,WeatherCatV1.11B39,2013-09-23 23:47:00,
2013-09-23 17:52:00,61.0,39.5,30.17,SW,233,0.0,2.0,45,0.00,,,0.02,WeatherCatV1.11B39,2013-09-23 23:52:00,
2013-09-23 17:57:00,60.8,40.4,30.17,SW,233,0.0,0.0,47,0.00,,,0.02,WeatherCatV1.11B39,2013-09-23 23:57:00,
2013-09-23 18:02:00,60.7,39.8,30.17,SW,234,0.0,2.0,46,0.00,,,0.02,WeatherCatV1.11B39,2013-09-24 00:02:00,
2013-09-23 18:07:00,59.9,41.7,30.17,SW,234,0.0,0.0,51,0.00,,,0.02,WeatherCatV1.11B39,2013-09-24 00:07:00,
2013-09-23 18:12:00,59.0,41.9,30.17,SW,234,0.0,0.0,53,0.00,,,0.02,WeatherCatV1.11B39,2013-09-24 00:12:00,
2013-09-23 18:17:00,58.4,42.3,30.17,SW,234,0.0,0.0,55,0.00,,,0.02,WeatherCatV1.11B39,2013-09-24 00:17:00,
2013-09-23 18:22:00,57.8,44.0,30.17,SW,234,0.0,0.0,60,0.00,,,0.02,WeatherCatV1.11B39,2013-09-24 00:22:00,
2013-09-23 18:27:00,56.9,42.7,30.17,SW,234,0.0,0.0,59,0.00,,,0.02,WeatherCatV1.11B39,2013-09-24 00:27:00,
2013-09-23 18:32:00,56.0,41.9,30.17,SW,234,0.0,1.0,59,0.00,,,0.02,WeatherCatV1.11B39,2013-09-24 00:32:00,
2013-09-23 18:37:00,55.2,42.0,30.17,SW,234,0.0,0.0,61,0.00,,,0.02,WeatherCatV1.11B39,2013-09-24 00:37:00,
2013-09-23 18:42:00,54.6,43.9,30.17,SW,234,0.0,0.0,67,0.00,,,0.02,WeatherCatV1.11B39,2013-09-24 00:42:00,
2013-09-23 18:47:00,54.1,43.0,30.17,SW,234,0.0,0.0,66,0.00,,,0.02,WeatherCatV1.11B39,2013-09-24 00:47:00,
2013-09-23 18:52:00,53.6,42.1,30.17,SW,234,0.0,0.0,65,0.00,,,0.02,WeatherCatV1.11B39,2013-09-24 00:52:00,
2013-09-23 18:57:00,53.1,41.6,30.17,SW,234,0.0,0.0,65,0.00,,,0.02,WeatherCatV1.11B39,2013-09-24 00:57:00,
2013-09-23 19:02:00,52.6,42.0,30.18,SW,234,0.0,0.0,67,0.00,,,0.02,WeatherCatV1.11B39,2013-09-24 01:02:00,
2013-09-23 19:07:00,52.0,41.4,30.18,SW,234,0.0,0.0,67,0.00,,,0.02,WeatherCatV1.11B39,2013-09-24 01:07:00,
2013-09-23 19:12:00,51.6,43.2,30.18,SW,234,0.0,0.0,73,0.00,,,0.02,WeatherCatV1.11B39,2013-09-24 01:12:00,
2013-09-23 19:17:00,51.0,41.6,30.18,SW,234,0.0,0.0,70,0.00,,,0.02,WeatherCatV1.11B39,2013-09-24 01:17:00,
2013-09-23 19:23:00,50.5,42.2,30.18,SW,234,0.0,0.0,73,0.00,,,0.02,WeatherCatV1.11B39,2013-09-24 01:23:00,
2013-09-23 19:28:00,49.9,41.6,30.19,SW,234,0.0,0.0,73,0.00,,,0.02,WeatherCatV1.11B39,2013-09-24 01:28:00,
2013-09-23 19:33:00,49.5,41.6,30.19,SW,234,0.0,3.0,74,0.00,,,0.02,WeatherCatV1.11B39,2013-09-24 01:33:00,
2013-09-23 19:38:00,49.2,40.6,30.19,SW,234,0.0,0.0,72,0.00,,,0.02,WeatherCatV1.11B39,2013-09-24 01:38:00,
2013-09-23 19:43:00,48.9,40.6,30.19,SW,234,0.0,0.0,73,0.00,,,0.02,WeatherCatV1.11B39,2013-09-24 01:43:00,
2013-09-23 19:48:00,48.7,40.8,30.20,SW,234,0.0,0.0,74,0.00,,,0.02,WeatherCatV1.11B39,2013-09-24 01:48:00,
2013-09-23 19:53:00,48.5,42.0,30.20,SW,234,0.0,0.0,78,0.00,,,0.02,WeatherCatV1.11B39,2013-09-24 01:53:00,
2013-09-23 19:58:00,48.2,41.3,30.21,SW,234,0.0,0.0,77,0.00,,,0.02,WeatherCatV1.11B39,2013-09-24 01:58:00,
2013-09-23 20:03:00,47.9,41.4,30.21,SW,234,0.0,0.0,78,0.00,,,0.02,WeatherCatV1.11B39,2013-09-24 02:03:00,
2013-09-23 20:08:00,47.6,41.4,30.21,SW,234,0.0,0.0,79,0.00,,,0.02,WeatherCatV1.11B39,2013-09-24 02:08:00,
2013-09-23 20:13:00,47.2,41.3,30.22,SW,234,0.0,0.0,80,0.00,,,0.02,WeatherCatV1.11B39,2013-09-24 02:13:00,
2013-09-23 20:18:00,46.9,41.1,30.22,SW,234,0.0,0.0,80,0.00,,,0.02,WeatherCatV1.11B39,2013-09-24 02:18:00,
2013-09-23 20:23:00,46.5,41.0,30.23,SW,234,0.0,0.0,81,0.00,,,0.02,WeatherCatV1.11B39,2013-09-24 02:23:00,
2013-09-23 20:28:00,46.3,41.1,30.23,SW,234,0.0,0.0,82,0.00,,,0.02,WeatherCatV1.11B39,2013-09-24 02:28:00,
2013-09-23 20:33:00,46.0,41.1,30.23,SW,234,0.0,0.0,83,0.00,,,0.02,WeatherCatV1.11B39,2013-09-24 02:33:00,
2013-09-23 20:38:00,45.7,40.5,30.24,SW,234,0.0,1.0,82,0.00,,,0.02,WeatherCatV1.11B39,2013-09-24 02:38:00,
2013-09-23 20:43:00,45.5,40.3,30.24,SW,234,0.0,0.0,82,0.00,,,0.02,WeatherCatV1.11B39,2013-09-24 02:43:00,
2013-09-23 20:48:00,45.2,40.7,30.24,SW,234,0.0,0.0,84,0.00,,,0.02,WeatherCatV1.11B39,2013-09-24 02:48:00,
2013-09-23 20:53:00,45.0,40.2,30.24,SW,234,0.0,0.0,83,0.00,,,0.02,WeatherCatV1.11B39,2013-09-24 02:53:00,
2013-09-23 20:58:00,44.8,40.6,30.25,SW,234,0.0,0.0,85,0.00,,,0.02,WeatherCatV1.11B39,2013-09-24 02:58:00,
2013-09-23 21:03:00,44.6,40.4,30.25,SW,234,0.0,0.0,85,0.00,,,0.02,WeatherCatV1.11B39,2013-09-24 03:03:00,
2013-09-23 21:08:00,44.4,40.2,30.25,SW,234,0.0,0.0,85,0.00,,,0.02,WeatherCatV1.11B39,2013-09-24 03:08:00,
2013-09-23 21:13:00,44.2,40.0,30.26,SW,234,0.0,0.0,85,0.00,,,0.02,WeatherCatV1.11B39,2013-09-24 03:13:00,
2013-09-23 21:18:00,44.1,40.2,30.26,SW,234,0.0,0.0,86,0.00,,,0.02,WeatherCatV1.11B39,2013-09-24 03:18:00,
2013-09-23 21:23:00,43.8,39.9,30.26,SW,234,0.0,1.0,86,0.00,,,0.02,WeatherCatV1.11B39,2013-09-24 03:23:00,
2013-09-23 21:28:00,43.5,39.6,30.26,SW,234,0.0,0.0,86,0.00,,,0.02,WeatherCatV1.11B39,2013-09-24 03:28:00,
2013-09-23 21:33:00,43.3,39.4,30.26,SW,234,0.0,0.0,86,0.00,,,0.02,WeatherCatV1.11B39,2013-09-24 03:33:00,
2013-09-23 21:38:00,43.1,39.5,30.27,SW,234,0.0,0.0,87,0.00,,,0.02,WeatherCatV1.11B39,2013-09-24 03:38:00,
2013-09-23 21:43:00,43.0,39.7,30.27,SW,234,0.0,0.0,88,0.00,,,0.02,WeatherCatV1.11B39,2013-09-24 03:43:00,
2013-09-23 21:48:00,42.9,39.6,30.27,SW,234,0.0,0.0,88,0.00,,,0.02,WeatherCatV1.11B39,2013-09-24 03:48:00,
2013-09-23 21:53:00,42.7,39.4,30.28,SW,234,0.0,0.0,88,0.00,,,0.02,WeatherCatV1.11B39,2013-09-24 03:53:00,
2013-09-23 21:58:00,42.5,39.2,30.28,SW,234,0.0,0.0,88,0.00,,,0.02,WeatherCatV1.11B39,2013-09-24 03:58:00,
2013-09-23 22:01:00,42.4,39.4,30.28,SW,234,0.0,0.0,89,0.00,,,0.02,WeatherCatV1.11B39,2013-09-24 04:01:00,
2013-09-23 22:06:00,42.2,39.2,30.28,SW,234,0.0,0.0,89,0.00,,,0.02,WeatherCatV1.11B39,2013-09-24 04:06:00,
2013-09-23 22:11:00,42.1,39.4,30.28,SW,234,0.0,0.0,90,0.00,,,0.02,WeatherCatV1.11B39,2013-09-24 04:11:00,
2013-09-23 22:16:00,42.0,39.3,30.29,SW,234,0.0,0.0,90,0.00,,,0.02,WeatherCatV1.11B39,2013-09-24 04:16:00,
2013-09-23 22:21:00,41.8,38.8,30.29,SW,234,0.0,0.0,89,0.00,,,0.02,WeatherCatV1.11B39,2013-09-24 04:21:00,
2013-09-23 22:26:00,41.6,38.6,30.28,SW,234,0.0,0.0,89,0.00,,,0.02,WeatherCatV1.11B39,2013-09-24 04:26:00,
2013-09-23 22:31:00,41.5,38.5,30.29,SW,234,0.0,0.0,89,0.00,,,0.02,WeatherCatV1.11B39,2013-09-24 04:31:00,
2013-09-23 22:36:00,41.5,39.1,30.29,SW,234,0.0,0.0,91,0.00,,,0.02,WeatherCatV1.11B39,2013-09-24 04:36:00,
2013-09-23 22:41:00,41.5,39.1,30.29,SW,234,0.0,0.0,91,0.00,,,0.02,WeatherCatV1.11B39,2013-09-24 04:41:00,
2013-09-23 22:46:00,41.3,38.6,30.29,SW,234,0.0,0.0,90,0.00,,,0.02,WeatherCatV1.11B39,2013-09-24 04:46:00,
2013-09-23 22:51:00,41.2,38.5,30.30,SW,234,0.0,0.0,90,0.00,,,0.02,WeatherCatV1.11B39,2013-09-24 04:51:00,
2013-09-23 22:56:00,41.0,38.3,30.30,SW,234,0.0,0.0,90,0.00,,,0.02,WeatherCatV1.11B39,2013-09-24 04:56:00,
2013-09-23 23:01:00,40.9,38.5,30.30,SW,234,0.0,0.0,91,0.00,,,0.02,WeatherCatV1.11B39,2013-09-24 05:01:00,
2013-09-23 23:06:00,40.7,38.3,30.30,SW,234,0.0,0.0,91,0.00,,,0.02,WeatherCatV1.11B39,2013-09-24 05:06:00,
2013-09-23 23:11:00,40.6,38.2,30.31,SW,234,0.0,0.0,91,0.00,,,0.02,WeatherCatV1.11B39,2013-09-24 05:11:00,
2013-09-23 23:16:00,40.5,38.1,30.31,SW,234,0.0,0.0,91,0.00,,,0.02,WeatherCatV1.11B39,2013-09-24 05:16:00,
2013-09-23 23:21:00,40.3,37.9,30.31,SW,234,0.0,0.0,91,0.00,,,0.02,WeatherCatV1.11B39,2013-09-24 05:21:00,
2013-09-23 23:26:00,40.2,37.8,30.31,SW,234,0.0,0.0,91,0.00,,,0.02,WeatherCatV1.11B39,2013-09-24 05:26:00,
2013-09-23 23:31:00,40.1,37.7,30.31,SW,234,0.0,0.0,91,0.00,,,0.02,WeatherCatV1.11B39,2013-09-24 05:31:00,
2013-09-23 23:36:00,39.9,37.8,30.31,SW,234,0.0,0.0,92,0.00,,,0.02,WeatherCatV1.11B39,2013-09-24 05:36:00,
2013-09-23 23:41:00,39.8,37.7,30.31,SW,234,0.0,0.0,92,0.00,,,0.02,WeatherCatV1.11B39,2013-09-24 05:41:00,
2013-09-23 23:46:00,39.7,37.6,30.31,SW,234,0.0,0.0,92,0.00,,,0.02,WeatherCatV1.11B39,2013-09-24 05:46:00,
2013-09-23 23:51:00,39.7,37.8,30.31,SW,234,0.0,0.0,93,0.00,,,0.02,WeatherCatV1.11B39,2013-09-24 05:51:00,
2013-09-23 23:56:00,39.7,37.6,30.31,SW,234,0.0,0.0,92,0.00,,,0.02,WeatherCatV1.11B39,2013-09-24 05:56:00,